Time;durP1;ratioP1;P1;durP2;ratioP2;P2;SDS_P1;SDS_P2;PMS_P1;PMS_P2;Temp;Humidity;BMP_temperature;BMP_pressure;BME280_temperature;BME280_humidity;BME280_pressure;Samples;Min_cycle;Max_cycle;Signal;HPM_P1;HPM_P2
2024/03/14 00:00:08;;;;;;;5.57;3.50;;;11.60;99.90;;;;;;5053313;28;20537;-70
2024/03/14 00:02:33;;;;;;;6.03;2.93;;;11.50;99.90;;;;;;5052764;28;20405;-70
2024/03/14 00:04:59;;;;;;;5.00;3.13;;;11.50;99.90;;;;;;5047532;28;20516;-71
2024/03/14 00:07:24;;;;;;;4.50;3.10;;;11.50;99.90;;;;;;5053091;28;20167;-70
2024/03/14 00:09:50;;;;;;;5.77;3.60;;;11.40;99.90;;;;;;5051582;28;20178;-70
2024/03/14 00:12:16;;;;;;;2.93;2.60;;;11.40;99.90;;;;;;5052952;28;20221;-70
2024/03/14 00:14:50;;;;;;;3.50;3.07;;;11.40;99.90;;;;;;5048472;28;20658;-70
2024/03/14 00:17:18;;;;;;;3.37;2.90;;;11.40;99.90;;;;;;5051596;28;20449;-70
2024/03/14 00:19:44;;;;;;;4.63;3.17;;;11.40;99.90;;;;;;5051379;28;20406;-70
2024/03/14 00:22:10;;;;;;;3.33;3.03;;;11.40;99.90;;;;;;5052861;28;20441;-70
2024/03/14 00:24:37;;;;;;;4.00;3.50;;;11.30;99.90;;;;;;5048902;28;20472;-70
2024/03/14 00:27:03;;;;;;;2.93;2.73;;;11.30;99.90;;;;;;5048023;28;20543;-71
2024/03/14 00:29:30;;;;;;;4.07;3.20;;;11.30;99.90;;;;;;5051371;28;20429;-70
2024/03/14 00:31:56;;;;;;;7.03;3.33;;;11.30;99.90;;;;;;5052586;28;20221;-70
2024/03/14 00:34:22;;;;;;;4.27;2.70;;;11.30;99.90;;;;;;5050288;28;20421;-71
2024/03/14 00:36:48;;;;;;;3.30;2.70;;;11.20;99.90;;;;;;5048100;28;20405;-70
2024/03/14 00:39:15;;;;;;;3.87;3.20;;;11.20;99.90;;;;;;5052235;28;20545;-70
2024/03/14 00:41:40;;;;;;;5.53;2.47;;;11.20;99.90;;;;;;5052483;28;20485;-70
2024/03/14 00:44:06;;;;;;;5.40;4.00;;;11.20;99.90;;;;;;5049670;28;20516;-70
2024/03/14 00:46:33;;;;;;;4.47;2.97;;;11.20;99.90;;;;;;5048784;28;20540;-70
2024/03/14 00:48:59;;;;;;;2.60;2.40;;;11.20;99.90;;;;;;5052098;28;20222;-70
2024/03/14 00:51:25;;;;;;;3.10;2.80;;;11.30;99.90;;;;;;5051759;28;20449;-70
2024/03/14 00:53:51;;;;;;;3.03;2.73;;;11.30;99.90;;;;;;5049148;28;20405;-70
2024/03/14 00:56:17;;;;;;;3.30;2.70;;;11.20;99.90;;;;;;5047963;28;20405;-70
2024/03/14 00:58:42;;;;;;;3.33;3.03;;;11.30;99.90;;;;;;5051153;28;20977;-70
2024/03/14 01:01:08;;;;;;;3.10;2.80;;;11.30;99.90;;;;;;5051487;28;20598;-70
2024/03/14 01:03:34;;;;;;;3.57;2.73;;;11.20;99.90;;;;;;5052595;28;20173;-70
2024/03/14 01:06:01;;;;;;;6.00;3.43;;;11.30;99.90;;;;;;5045555;28;20174;-70
2024/03/14 01:08:27;;;;;;;4.57;3.43;;;11.30;99.90;;;;;;5051098;28;20423;-70
2024/03/14 01:10:52;;;;;;;3.53;2.90;;;11.20;99.90;;;;;;5051255;28;20765;-70
2024/03/14 01:13:19;;;;;;;3.33;3.03;;;11.20;99.90;;;;;;5051194;28;20405;-70
2024/03/14 01:15:44;;;;;;;3.37;3.07;;;11.20;99.90;;;;;;5048900;28;20175;-71
2024/03/14 01:18:10;;;;;;;3.93;3.57;;;11.10;99.90;;;;;;5050858;28;20452;-70
2024/03/14 01:20:38;;;;;;;4.00;3.20;;;11.10;99.90;;;;;;5051191;28;20195;-71
2024/03/14 01:23:05;;;;;;;5.90;3.47;;;11.10;99.90;;;;;;5050841;28;20163;-70
2024/03/14 01:25:31;;;;;;;4.67;4.20;;;11.10;99.90;;;;;;5045281;28;20421;-71
2024/03/14 01:27:57;;;;;;;4.40;3.33;;;11.00;99.90;;;;;;5050597;28;20491;-70
2024/03/14 01:30:24;;;;;;;5.70;3.60;;;11.00;99.90;;;;;;5050988;28;20558;-70
2024/03/14 01:32:50;;;;;;;5.10;3.10;;;11.00;99.90;;;;;;5050964;28;20827;-70
2024/03/14 01:35:16;;;;;;;3.70;3.00;;;11.10;99.90;;;;;;5045323;28;20427;-70
2024/03/14 01:37:42;;;;;;;4.80;4.00;;;11.00;99.90;;;;;;5049274;28;20191;-70
2024/03/14 01:40:12;;;;;;;4.17;3.77;;;11.00;99.90;;;;;;5050255;28;20410;-70
2024/03/14 01:42:43;;;;;;;4.73;3.20;;;11.00;99.90;;;;;;5050417;28;20488;-70
2024/03/14 01:45:15;;;;;;;3.40;3.10;;;11.10;99.90;;;;;;5045549;28;20472;-70
2024/03/14 01:47:42;;;;;;;4.63;3.70;;;11.10;99.90;;;;;;5050585;28;20436;-70
2024/03/14 01:50:08;;;;;;;4.23;3.47;;;11.10;99.90;;;;;;5050471;28;20413;-70
2024/03/14 01:52:37;;;;;;;5.37;3.80;;;11.00;99.90;;;;;;5042330;28;217897;-70
2024/03/14 01:55:03;;;;;;;4.07;3.13;;;11.00;99.90;;;;;;5046072;28;20190;-70
2024/03/14 01:57:30;;;;;;;4.83;4.10;;;11.00;99.90;;;;;;5051177;28;20510;-70
2024/03/14 01:59:58;;;;;;;2.90;2.57;;;11.00;99.90;;;;;;5051502;28;20730;-70
2024/03/14 02:02:24;;;;;;;2.63;2.43;;;11.00;99.90;;;;;;5051546;28;20398;-70
2024/03/14 02:04:56;;;;;;;4.27;2.87;;;11.00;99.90;;;;;;5048509;28;20942;-70
2024/03/14 02:07:26;;;;;;;3.10;2.40;;;11.00;99.90;;;;;;5050310;28;20809;-70
2024/03/14 02:09:51;;;;;;;3.43;2.90;;;10.90;99.90;;;;;;5051030;28;20410;-70
2024/03/14 02:12:17;;;;;;;5.67;3.20;;;10.90;99.90;;;;;;5051295;28;20449;-70
2024/03/14 02:14:42;;;;;;;3.20;2.90;;;10.80;99.90;;;;;;5048989;28;20190;-70
2024/03/14 02:17:08;;;;;;;2.87;2.40;;;10.80;99.90;;;;;;5048777;28;20207;-70
2024/03/14 02:19:33;;;;;;;3.93;3.13;;;10.70;99.90;;;;;;5049958;28;20183;-70
2024/03/14 02:22:03;;;;;;;3.30;3.00;;;10.70;99.90;;;;;;5051330;28;20258;-71
2024/03/14 02:24:29;;;;;;;5.57;3.80;;;10.70;99.90;;;;;;5049006;28;20195;-70
2024/03/14 02:26:55;;;;;;;4.90;3.17;;;10.60;99.90;;;;;;5048652;28;20441;-70
2024/03/14 02:29:21;;;;;;;3.20;2.73;;;10.60;99.90;;;;;;5050941;28;20558;-70
2024/03/14 02:31:51;;;;;;;3.27;2.90;;;10.50;99.90;;;;;;5049669;28;20452;-70
2024/03/14 02:34:16;;;;;;;6.60;3.30;;;10.50;99.90;;;;;;5050172;28;20163;-70
2024/03/14 02:36:44;;;;;;;3.73;3.13;;;10.40;99.90;;;;;;5047026;28;20819;-70
2024/03/14 02:39:10;;;;;;;4.40;3.90;;;10.30;99.90;;;;;;5050906;28;20540;-71
2024/03/14 02:41:36;;;;;;;5.67;4.70;;;10.20;99.90;;;;;;5051105;28;20401;-70
2024/03/14 02:44:14;;;;;;;8.80;4.70;;;10.10;99.90;;;;;;5048605;28;20643;-71
2024/03/14 02:46:40;;;;;;;5.40;4.90;;;10.10;99.90;;;;;;5047703;28;20175;-71
2024/03/14 02:49:05;;;;;;;6.33;4.50;;;10.10;99.90;;;;;;5050921;28;20771;-70
2024/03/14 02:51:31;;;;;;;4.03;3.57;;;10.00;99.90;;;;;;5049637;28;20693;-70
2024/03/14 02:53:56;;;;;;;5.00;4.10;;;9.90;99.90;;;;;;5052318;28;20175;-70
2024/03/14 02:56:22;;;;;;;5.23;4.33;;;10.00;99.90;;;;;;5051477;28;20171;-70
2024/03/14 02:58:49;;;;;;;6.13;4.67;;;9.90;99.90;;;;;;5054358;28;20182;-70
2024/03/14 03:01:14;;;;;;;8.23;4.53;;;9.90;99.90;;;;;;5054808;28;20170;-71
2024/03/14 03:03:41;;;;;;;4.97;4.17;;;9.90;99.90;;;;;;5054272;28;20773;-70
2024/03/14 03:06:11;;;;;;;7.40;4.20;;;9.80;99.90;;;;;;5051961;28;20186;-70
2024/03/14 03:08:37;;;;;;;9.33;5.33;;;9.80;99.90;;;;;;5054163;28;20421;-70
2024/03/14 03:11:02;;;;;;;5.20;4.30;;;9.80;99.90;;;;;;5054257;28;20413;-70
2024/03/14 03:13:28;;;;;;;7.77;4.97;;;9.80;99.90;;;;;;5054199;28;20958;-70
2024/03/14 03:15:54;;;;;;;6.60;4.43;;;9.70;99.90;;;;;;5049247;28;20167;-70
2024/03/14 03:18:19;;;;;;;6.37;4.50;;;9.70;99.90;;;;;;5052486;28;20502;-70
2024/03/14 03:20:45;;;;;;;7.30;4.90;;;9.70;99.90;;;;;;5054173;28;20244;-70
2024/03/14 03:23:12;;;;;;;6.57;5.00;;;9.60;99.90;;;;;;5054096;28;20518;-71
2024/03/14 03:25:38;;;;;;;5.30;4.73;;;9.60;99.90;;;;;;5048800;28;20538;-70
2024/03/14 03:28:09;;;;;;;5.53;4.00;;;9.60;99.90;;;;;;5053753;28;20426;-70
2024/03/14 03:30:35;;;;;;;5.17;3.97;;;9.50;99.90;;;;;;5034116;28;20944;-70
2024/03/14 03:33:01;;;;;;;6.03;5.23;;;9.50;99.90;;;;;;5033514;28;20500;-70
2024/03/14 03:35:26;;;;;;;4.37;3.50;;;9.50;99.90;;;;;;5038710;28;20192;-70
2024/03/14 03:37:54;;;;;;;4.93;4.10;;;9.50;99.90;;;;;;5053491;28;20194;-70
2024/03/14 03:40:24;;;;;;;6.07;5.17;;;9.50;99.90;;;;;;5053629;28;20167;-70
2024/03/14 03:42:51;;;;;;;6.70;5.50;;;9.40;99.90;;;;;;5052498;28;20790;-70
2024/03/14 03:45:17;;;;;;;6.80;4.63;;;9.40;99.90;;;;;;5049432;28;20429;-70
2024/03/14 03:47:42;;;;;;;6.20;5.00;;;9.30;99.90;;;;;;5052316;28;20433;-70
2024/03/14 03:50:08;;;;;;;4.77;4.23;;;9.30;99.90;;;;;;5053839;28;20171;-70
2024/03/14 03:52:35;;;;;;;6.87;5.10;;;9.30;99.90;;;;;;5053415;28;20230;-71
2024/03/14 03:55:02;;;;;;;9.70;5.60;;;9.30;99.90;;;;;;5049628;28;20579;-70
2024/03/14 03:57:29;;;;;;;7.90;4.73;;;9.30;99.90;;;;;;5052377;28;20417;-70
2024/03/14 03:59:56;;;;;;;7.50;4.90;;;9.30;99.90;;;;;;5052037;28;20980;-70
2024/03/14 04:02:23;;;;;;;6.90;4.73;;;9.30;99.90;;;;;;5053471;28;20920;-70
2024/03/14 04:04:48;;;;;;;5.53;4.83;;;9.40;99.90;;;;;;5050082;28;20517;-70
2024/03/14 04:07:15;;;;;;;6.60;4.33;;;9.50;99.90;;;;;;5050143;28;20504;-70
2024/03/14 04:09:44;;;;;;;8.47;5.20;;;9.50;99.90;;;;;;5052942;28;20520;-70
2024/03/14 04:12:11;;;;;;;5.63;4.97;;;9.60;99.90;;;;;;5053035;28;20971;-70
2024/03/14 04:14:40;;;;;;;5.77;3.97;;;9.60;99.90;;;;;;5050806;28;20414;-70
2024/03/14 04:17:07;;;;;;;7.00;4.20;;;9.60;99.90;;;;;;5050067;28;21053;-70
2024/03/14 04:19:33;;;;;;;5.30;4.47;;;9.60;99.90;;;;;;5052766;28;20413;-70
2024/03/14 04:21:58;;;;;;;7.00;4.70;;;9.60;99.90;;;;;;5052955;28;20492;-70
2024/03/14 04:24:25;;;;;;;9.47;4.77;;;9.60;99.90;;;;;;5051409;28;20163;-70
2024/03/14 04:26:51;;;;;;;6.70;4.70;;;9.50;99.90;;;;;;5048697;28;20228;-70
2024/03/14 04:29:16;;;;;;;4.57;3.43;;;9.40;99.90;;;;;;5052608;28;20528;-70
2024/03/14 04:31:42;;;;;;;5.40;4.13;;;9.30;99.90;;;;;;5052784;28;20190;-70
2024/03/14 04:34:09;;;;;;;6.13;4.23;;;9.30;99.90;;;;;;5052510;28;20194;-70
2024/03/14 04:36:37;;;;;;;4.97;3.60;;;9.30;99.90;;;;;;5050771;28;20197;-70
2024/03/14 04:39:08;;;;;;;6.17;4.70;;;9.30;99.90;;;;;;5052337;28;20943;-70
2024/03/14 04:41:35;;;;;;;7.87;4.70;;;9.30;99.90;;;;;;5052603;28;20420;-70
2024/03/14 04:44:03;;;;;;;5.63;4.80;;;9.30;99.90;;;;;;5050555;28;20443;-70
2024/03/14 04:46:29;;;;;;;6.23;4.10;;;9.20;99.90;;;;;;5048264;28;20444;-70
2024/03/14 04:48:56;;;;;;;4.57;3.70;;;9.20;99.90;;;;;;5052378;28;20449;-70
2024/03/14 04:51:22;;;;;;;6.40;4.13;;;9.20;99.90;;;;;;5052186;28;20196;-70
2024/03/14 04:53:47;;;;;;;7.37;4.23;;;9.10;99.90;;;;;;5052390;28;20484;-70
2024/03/14 04:56:13;;;;;;;6.13;4.70;;;9.10;99.90;;;;;;5049947;28;20520;-70
2024/03/14 04:58:39;;;;;;;11.87;4.67;;;9.10;99.90;;;;;;5052164;28;20197;-70
2024/03/14 05:01:04;;;;;;;7.57;4.37;;;9.00;99.90;;;;;;5052355;28;20250;-70
2024/03/14 05:03:30;;;;;;;4.53;4.00;;;9.00;99.90;;;;;;5052248;28;20178;-71
2024/03/14 05:05:56;;;;;;;6.80;4.23;;;9.00;99.90;;;;;;5046018;28;20182;-71
2024/03/14 05:08:22;;;;;;;9.93;4.13;;;8.90;99.90;;;;;;5051853;28;20197;-70
2024/03/14 05:10:48;;;;;;;5.00;3.97;;;8.90;99.90;;;;;;5052117;28;20408;-70
2024/03/14 05:13:13;;;;;;;3.73;3.40;;;8.80;99.90;;;;;;5046783;28;20453;-70
2024/03/14 05:15:39;;;;;;;8.00;5.00;;;8.80;99.90;;;;;;5051517;28;20170;-70
2024/03/14 05:18:05;;;;;;;5.77;4.30;;;8.60;99.90;;;;;;5051864;28;20673;-70
2024/03/14 05:20:31;;;;;;;4.67;3.97;;;8.60;99.90;;;;;;5051923;28;20571;-70
2024/03/14 05:22:57;;;;;;;5.80;4.53;;;8.50;99.90;;;;;;5051725;28;20485;-70
2024/03/14 05:25:23;;;;;;;5.80;3.97;;;8.50;99.90;;;;;;5049466;28;20417;-71
2024/03/14 05:27:50;;;;;;;6.70;3.73;;;8.50;99.90;;;;;;5050417;28;20441;-70
2024/03/14 05:30:17;;;;;;;5.30;3.80;;;8.50;99.90;;;;;;5051913;28;20436;-71
2024/03/14 05:32:44;;;;;;;9.70;3.90;;;8.50;99.90;;;;;;5050351;28;20946;-70
2024/03/14 05:35:11;;;;;;;4.03;3.47;;;8.60;99.90;;;;;;5042886;28;20946;-70
2024/03/14 05:37:37;;;;;;;6.23;4.33;;;8.40;99.90;;;;;;5051340;28;20973;-71
2024/03/14 05:40:04;;;;;;;6.73;4.27;;;8.40;99.90;;;;;;5051802;28;20496;-70
2024/03/14 05:42:31;;;;;;;5.30;4.50;;;8.40;99.90;;;;;;5051606;28;20171;-70
2024/03/14 05:44:57;;;;;;;4.57;3.83;;;8.30;99.90;;;;;;5048737;28;20417;-71
2024/03/14 05:47:26;;;;;;;4.40;3.50;;;8.20;99.90;;;;;;5051246;28;20409;-71
2024/03/14 05:49:52;;;;;;;5.60;4.83;;;8.20;99.90;;;;;;5045270;28;20799;-71
2024/03/14 05:52:18;;;;;;;4.70;3.47;;;8.10;99.90;;;;;;5051302;28;20457;-70
2024/03/14 05:54:44;;;;;;;5.83;4.63;;;8.10;99.90;;;;;;5051423;28;20696;-70
2024/03/14 05:57:09;;;;;;;5.97;4.47;;;8.00;99.90;;;;;;5050272;28;20425;-70
2024/03/14 05:59:36;;;;;;;5.53;3.73;;;8.00;99.90;;;;;;5051373;28;20190;-70
2024/03/14 06:02:02;;;;;;;5.33;3.67;;;8.10;99.90;;;;;;5051563;28;20167;-70
2024/03/14 06:04:27;;;;;;;6.53;4.33;;;8.00;99.90;;;;;;5051314;28;20406;-70
2024/03/14 06:06:53;;;;;;;4.13;3.73;;;8.00;99.90;;;;;;5050208;28;20421;-70
2024/03/14 06:09:31;;;;;;;5.97;4.80;;;8.00;99.90;;;;;;5051443;28;20582;-71
2024/03/14 06:11:57;;;;;;;4.50;3.30;;;8.00;99.90;;;;;;5051405;28;20200;-71
2024/03/14 06:14:23;;;;;;;7.77;4.17;;;7.90;99.90;;;;;;5046782;28;20827;-71
2024/03/14 06:16:49;;;;;;;4.40;3.67;;;7.90;99.90;;;;;;5051113;28;20163;-71
2024/03/14 06:19:15;;;;;;;5.33;3.90;;;7.90;99.90;;;;;;5051049;28;20286;-70
2024/03/14 06:21:40;;;;;;;4.77;3.33;;;7.90;99.90;;;;;;5042872;28;20508;-71
2024/03/14 06:24:06;;;;;;;4.97;3.67;;;8.00;99.90;;;;;;5051154;28;20409;-68
2024/03/14 06:26:35;;;;;;;5.90;4.30;;;8.00;99.90;;;;;;5051105;28;20171;-68
2024/03/14 06:29:01;;;;;;;3.67;3.37;;;8.10;99.90;;;;;;5054780;28;20195;-68
2024/03/14 06:31:27;;;;;;;4.50;3.23;;;8.20;99.90;;;;;;5054738;28;20453;-69
2024/03/14 06:33:52;;;;;;;6.40;4.67;;;8.30;99.90;;;;;;5055063;28;20163;-70
2024/03/14 06:36:18;;;;;;;4.10;3.53;;;8.50;99.90;;;;;;5054769;28;20163;-68
2024/03/14 06:38:44;;;;;;;5.80;4.00;;;8.70;99.90;;;;;;5054941;28;20183;-68
2024/03/14 06:41:10;;;;;;;2.93;2.67;;;8.90;99.90;;;;;;5054998;28;20566;-68
2024/03/14 06:43:36;;;;;;;6.37;4.20;;;9.10;99.90;;;;;;5054988;28;20569;-68
2024/03/14 06:46:05;;;;;;;5.23;4.00;;;9.30;99.90;;;;;;5050482;28;20417;-68
2024/03/14 06:48:31;;;;;;;6.80;5.30;;;9.60;99.90;;;;;;5054502;28;20278;-69
2024/03/14 06:50:57;;;;;;;7.13;4.20;;;9.90;99.90;;;;;;5054448;28;20425;-69
2024/03/14 06:53:22;;;;;;;7.10;4.83;;;10.20;99.90;;;;;;5054638;28;20965;-68
2024/03/14 06:55:49;;;;;;;6.20;4.57;;;10.50;99.90;;;;;;5054259;28;20582;-69
2024/03/14 06:58:16;;;;;;;3.47;3.17;;;10.80;99.90;;;;;;5050850;28;20647;-69
2024/03/14 07:00:42;;;;;;;4.83;3.97;;;11.10;99.90;;;;;;5054364;28;20763;-69
2024/03/14 07:03:08;;;;;;;5.30;4.47;;;11.40;99.90;;;;;;5052703;28;20443;-69
2024/03/14 07:05:33;;;;;;;5.87;3.80;;;11.60;99.90;;;;;;5054088;28;20170;-69
2024/03/14 07:07:59;;;;;;;5.40;4.90;;;11.90;99.90;;;;;;5054439;28;20277;-70
2024/03/14 07:10:25;;;;;;;5.93;3.47;;;12.00;99.90;;;;;;5054225;28;20198;-69
2024/03/14 07:12:50;;;;;;;5.17;4.20;;;12.20;99.90;;;;;;5054195;28;20217;-68
2024/03/14 07:15:17;;;;;;;5.03;4.53;;;12.40;99.90;;;;;;5053854;28;20186;-69
2024/03/14 07:17:43;;;;;;;8.83;4.17;;;12.50;99.90;;;;;;5033906;28;20218;-69
2024/03/14 07:20:09;;;;;;;5.67;4.43;;;12.70;99.90;;;;;;5034317;28;20459;-69
2024/03/14 07:22:37;;;;;;;4.13;3.43;;;12.70;99.90;;;;;;5034275;28;20569;-68
2024/03/14 07:25:06;;;;;;;5.20;3.60;;;12.80;99.90;;;;;;5034013;28;20406;-69
2024/03/14 07:27:33;;;;;;;5.10;4.17;;;12.90;99.90;;;;;;5034060;28;20407;-69
2024/03/14 07:30:00;;;;;;;4.30;3.53;;;13.00;99.90;;;;;;5034149;28;20404;-69
2024/03/14 07:32:26;;;;;;;3.83;3.47;;;13.10;99.90;;;;;;5034062;28;20805;-68
2024/03/14 07:34:52;;;;;;;3.80;3.40;;;13.20;99.90;;;;;;5033752;28;20436;-69
2024/03/14 07:37:23;;;;;;;5.63;3.50;;;13.40;99.90;;;;;;5033902;28;20793;-69
2024/03/14 07:39:53;;;;;;;8.60;3.13;;;13.80;99.90;;;;;;5042598;28;20417;-68
2024/03/14 07:42:20;;;;;;;3.30;3.00;;;14.30;99.90;;;;;;5053721;28;20471;-68
2024/03/14 07:44:45;;;;;;;4.20;2.83;;;14.90;99.90;;;;;;5048774;28;20424;-69
2024/03/14 07:47:23;;;;;;;2.70;2.50;;;15.50;99.90;;;;;;5049062;28;20409;-68
2024/03/14 07:49:50;;;;;;;3.90;2.93;;;16.20;99.90;;;;;;5045793;28;20206;-68
2024/03/14 07:52:15;;;;;;;5.87;2.47;;;16.50;99.90;;;;;;5053327;28;20483;-68
2024/03/14 07:54:44;;;;;;;3.23;2.93;;;17.10;99.90;;;;;;5053111;28;20414;-68
2024/03/14 07:57:12;;;;;;;2.53;2.30;;;17.60;99.90;;;;;;5052207;28;20174;-69
2024/03/14 07:59:38;;;;;;;6.00;2.93;;;18.00;99.90;;;;;;5053474;28;20406;-70
2024/03/14 08:02:07;;;;;;;3.33;2.47;;;18.70;99.90;;;;;;5053453;28;20414;-68
2024/03/14 08:04:33;;;;;;;2.90;2.27;;;19.10;99.90;;;;;;5053104;28;20512;-69
2024/03/14 08:06:59;;;;;;;2.57;2.37;;;19.60;99.90;;;;;;5053185;28;20804;-69
2024/03/14 08:09:26;;;;;;;2.70;2.50;;;20.00;99.90;;;;;;5053085;28;20987;-69
2024/03/14 08:11:52;;;;;;;2.20;2.00;;;20.30;97.70;;;;;;5051909;28;20461;-68
2024/03/14 08:14:18;;;;;;;2.63;2.43;;;20.40;92.10;;;;;;5052977;28;20827;-69
2024/03/14 08:16:43;;;;;;;2.13;1.80;;;20.40;91.10;;;;;;5053180;28;20185;-69
2024/03/14 08:19:09;;;;;;;2.63;2.10;;;20.20;84.10;;;;;;5051686;28;20940;-69
2024/03/14 08:21:36;;;;;;;2.07;1.83;;;20.00;83.40;;;;;;5053104;28;20178;-69
2024/03/14 08:24:09;;;;;;;2.80;2.50;;;19.80;83.20;;;;;;5044826;28;20175;-68
2024/03/14 08:26:36;;;;;;;3.93;2.37;;;19.60;85.10;;;;;;5052989;28;20409;-69
2024/03/14 08:29:02;;;;;;;3.23;1.90;;;19.50;86.40;;;;;;5052696;28;20433;-68
2024/03/14 08:31:28;;;;;;;2.33;2.13;;;19.40;86.30;;;;;;5052702;28;20453;-68
2024/03/14 08:33:55;;;;;;;3.83;2.17;;;19.10;87.90;;;;;;5052630;28;20406;-69
2024/03/14 08:36:21;;;;;;;4.87;1.90;;;19.10;90.30;;;;;;5052749;28;20764;-69
2024/03/14 08:38:48;;;;;;;2.23;2.03;;;19.20;88.40;;;;;;5052924;28;20433;-69
2024/03/14 08:41:14;;;;;;;2.30;2.10;;;19.00;88.20;;;;;;5052785;28;20412;-68
2024/03/14 08:43:40;;;;;;;2.53;2.00;;;19.00;90.10;;;;;;5052647;28;20397;-68
2024/03/14 08:46:06;;;;;;;1.53;1.43;;;19.50;91.00;;;;;;5044167;28;20205;-69
2024/03/14 08:48:33;;;;;;;2.10;1.90;;;20.10;87.80;;;;;;5051035;28;20431;-68
2024/03/14 08:50:59;;;;;;;2.13;1.93;;;19.90;84.60;;;;;;5051635;28;20963;-70
2024/03/14 08:53:30;;;;;;;2.30;1.90;;;19.30;83.10;;;;;;5051908;28;20823;-71
2024/03/14 08:55:55;;;;;;;2.30;1.83;;;20.00;90.10;;;;;;5041895;28;20899;-69
2024/03/14 08:58:29;;;;;;;2.13;2.03;;;21.10;82.30;;;;;;5037190;28;20460;-69
2024/03/14 09:00:59;;;;;;;3.00;2.70;;;21.40;75.60;;;;;;5045103;28;20170;-70
2024/03/14 09:03:24;;;;;;;2.50;2.30;;;21.80;74.10;;;;;;5052354;28;20405;-69
2024/03/14 09:05:50;;;;;;;3.20;2.50;;;23.10;74.00;;;;;;5051917;28;20406;-69
2024/03/14 09:08:18;;;;;;;2.80;2.60;;;24.20;64.10;;;;;;5052122;28;20590;-70
2024/03/14 09:10:45;;;;;;;3.00;2.77;;;25.00;57.30;;;;;;5052213;28;20297;-69
2024/03/14 09:13:10;;;;;;;5.60;2.97;;;25.10;52.80;;;;;;5052135;28;20441;-68
2024/03/14 09:15:36;;;;;;;2.70;2.40;;;25.30;52.70;;;;;;5050722;28;20784;-68
2024/03/14 09:18:03;;;;;;;2.77;2.50;;;25.10;52.40;;;;;;5050868;28;20579;-67
2024/03/14 09:20:28;;;;;;;2.57;2.37;;;25.60;51.70;;;;;;5052158;28;20623;-67
2024/03/14 09:22:55;;;;;;;3.73;2.30;;;26.00;50.50;;;;;;5052003;28;20429;-67
2024/03/14 09:25:22;;;;;;;2.43;2.10;;;26.60;49.50;;;;;;5051011;28;20182;-69
2024/03/14 09:27:48;;;;;;;2.60;2.40;;;26.50;47.80;;;;;;5050714;28;20461;-70
2024/03/14 09:30:14;;;;;;;2.33;2.00;;;26.50;48.60;;;;;;5051850;28;20754;-67
2024/03/14 09:32:40;;;;;;;3.00;2.10;;;26.50;47.80;;;;;;5051512;28;20495;-67
2024/03/14 09:37:53;;;;;;;2.60;2.40;;;27.00;47.10;;;;;;5052046;28;20424;-67
2024/03/14 09:40:21;;;;;;;2.10;1.90;;;27.70;45.50;;;;;;5051882;28;20428;-67
2024/03/14 09:42:59;;;;;;;4.17;2.63;;;28.70;45.30;;;;;;5051810;28;20819;-67
2024/03/14 09:45:25;;;;;;;2.60;2.40;;;28.90;42.70;;;;;;5048144;28;20761;-66
2024/03/14 09:47:51;;;;;;;2.23;2.03;;;28.90;41.80;;;;;;5051590;28;20448;-66
2024/03/14 09:50:20;;;;;;;2.60;2.40;;;28.50;41.60;;;;;;5051753;28;20410;-66
2024/03/14 09:52:48;;;;;;;2.70;2.50;;;28.00;41.70;;;;;;5051470;28;20548;-66
2024/03/14 09:55:14;;;;;;;2.50;2.30;;;27.80;41.80;;;;;;5051480;28;20523;-68
2024/03/14 09:57:40;;;;;;;3.03;2.67;;;27.60;41.90;;;;;;5050364;28;20428;-66
2024/03/14 10:00:09;;;;;;;4.50;3.70;;;27.40;42.60;;;;;;5051566;28;20405;-66
2024/03/14 10:02:35;;;;;;;2.57;2.37;;;26.30;42.50;;;;;;5053085;28;20189;-67
2024/03/14 10:05:01;;;;;;;3.20;2.90;;;26.20;44.50;;;;;;5055451;28;20458;-69
2024/03/14 10:07:29;;;;;;;2.70;2.27;;;26.30;44.90;;;;;;5055553;28;20445;-69
2024/03/14 10:09:55;;;;;;;3.10;2.80;;;27.20;44.20;;;;;;5055565;28;20445;-70
2024/03/14 10:12:21;;;;;;;3.60;3.20;;;28.40;43.40;;;;;;5055340;28;20445;-70
2024/03/14 10:15:12;;;;;;;2.93;2.70;;;28.90;42.10;;;;;;5055269;28;20405;-69
2024/03/14 10:17:40;;;;;;;4.83;2.37;;;28.80;41.20;;;;;;5055403;28;20428;-69
2024/03/14 10:20:13;;;;;;;2.93;2.73;;;28.50;40.30;;;;;;5055375;28;20405;-68
2024/03/14 10:22:41;;;;;;;2.70;2.07;;;28.60;41.20;;;;;;5055330;28;20405;-68
2024/03/14 10:25:14;;;;;;;2.30;2.17;;;28.60;40.80;;;;;;5055181;28;20408;-69
2024/03/14 10:27:44;;;;;;;2.27;2.07;;;28.40;40.50;;;;;;5055467;28;20947;-67
2024/03/14 10:30:12;;;;;;;3.00;2.20;;;29.30;40.50;;;;;;5055243;28;20434;-67
2024/03/14 10:32:40;;;;;;;2.90;2.70;;;30.30;39.10;;;;;;5054982;28;20453;-67
2024/03/14 10:35:14;;;;;;;3.37;2.40;;;30.70;37.80;;;;;;5054819;28;20455;-67
2024/03/14 10:37:41;;;;;;;2.37;2.17;;;30.10;37.40;;;;;;5055242;28;20421;-67
2024/03/14 10:40:19;;;;;;;2.60;2.40;;;29.60;37.80;;;;;;5055054;28;20405;-67
2024/03/14 10:42:49;;;;;;;2.10;1.90;;;28.20;38.40;;;;;;5055040;28;21124;-67
2024/03/14 10:45:16;;;;;;;2.47;2.13;;;27.20;39.40;;;;;;5054740;28;20407;-68
2024/03/14 10:47:42;;;;;;;2.43;2.23;;;26.00;40.70;;;;;;5054824;28;20459;-67
2024/03/14 10:50:16;;;;;;;2.57;2.37;;;24.80;42.50;;;;;;5054780;28;20445;-66
2024/03/14 10:52:45;;;;;;;2.20;2.00;;;24.10;44.30;;;;;;5054274;28;20981;-67
2024/03/14 10:55:14;;;;;;;2.30;2.10;;;23.90;46.10;;;;;;5054458;28;20865;-67
2024/03/14 10:57:41;;;;;;;2.00;1.90;;;24.40;46.80;;;;;;5051426;28;20508;-67
2024/03/14 11:00:14;;;;;;;4.63;2.23;;;24.50;46.20;;;;;;5053270;28;20397;-67
2024/03/14 11:02:51;;;;;;;3.50;2.00;;;25.10;46.30;;;;;;5054594;28;20409;-68
2024/03/14 11:05:22;;;;;;;2.50;1.90;;;27.00;45.70;;;;;;5054377;28;20455;-67
2024/03/14 11:07:51;;;;;;;2.20;2.00;;;29.40;43.30;;;;;;5054452;28;20425;-68
2024/03/14 11:10:24;;;;;;;2.60;2.40;;;31.40;40.50;;;;;;5054514;28;20405;-67
2024/03/14 11:12:54;;;;;;;2.47;1.97;;;33.10;37.40;;;;;;5053832;28;20993;-68
2024/03/14 11:15:22;;;;;;;2.03;1.90;;;34.40;35.00;;;;;;5054146;28;20406;-67
2024/03/14 11:17:51;;;;;;;2.17;2.03;;;33.40;33.70;;;;;;5054283;28;20417;-68
2024/03/14 11:20:25;;;;;;;1.80;1.70;;;33.90;34.00;;;;;;5054298;28;20408;-67
2024/03/14 11:22:55;;;;;;;1.90;1.73;;;34.10;33.20;;;;;;5052956;28;20432;-67
2024/03/14 11:25:22;;;;;;;2.57;1.70;;;33.90;32.80;;;;;;5053986;28;20406;-67
2024/03/14 11:27:50;;;;;;;2.00;1.90;;;34.10;32.90;;;;;;5053773;28;20433;-68
2024/03/14 11:30:19;;;;;;;2.80;2.33;;;34.70;32.80;;;;;;5054030;28;20405;-68
2024/03/14 11:32:55;;;;;;;2.17;1.97;;;35.20;31.70;;;;;;5053925;28;20963;-68
2024/03/14 11:35:34;;;;;;;2.73;2.53;;;36.10;31.50;;;;;;5052566;28;20417;-69
2024/03/14 11:38:04;;;;;;;2.90;2.70;;;37.20;30.80;;;;;;5053927;28;20999;-68
2024/03/14 11:40:33;;;;;;;1.60;1.50;;;37.90;29.30;;;;;;5054166;28;20404;-68
2024/03/14 11:43:00;;;;;;;1.83;1.70;;;37.90;28.90;;;;;;5053919;28;20401;-69
2024/03/14 11:45:27;;;;;;;2.50;2.30;;;38.00;28.50;;;;;;5053520;28;20425;-68
2024/03/14 11:47:53;;;;;;;1.77;1.67;;;38.20;28.00;;;;;;5054158;28;20429;-68
2024/03/14 11:50:22;;;;;;;2.10;1.93;;;38.20;27.90;;;;;;5053606;28;20421;-68
2024/03/14 11:52:50;;;;;;;2.63;2.03;;;38.60;28.10;;;;;;5053559;28;20974;-68
2024/03/14 11:55:18;;;;;;;2.33;2.10;;;39.20;27.90;;;;;;5053563;28;20425;-68
2024/03/14 11:57:49;;;;;;;1.50;1.40;;;38.80;26.60;;;;;;5053662;28;20441;-68
2024/03/14 12:00:20;;;;;;;2.70;1.90;;;38.60;26.90;;;;;;5053586;28;20393;-68
2024/03/14 12:02:49;;;;;;;2.87;1.87;;;37.70;27.00;;;;;;5053557;28;20913;-68
2024/03/14 12:05:23;;;;;;;2.03;1.50;;;38.20;27.10;;;;;;5053320;28;20492;-68
2024/03/14 12:07:54;;;;;;;2.10;2.00;;;38.80;27.10;;;;;;5053441;28;20413;-68
2024/03/14 12:10:22;;;;;;;3.27;2.07;;;38.70;26.60;;;;;;5053415;28;20394;-68
2024/03/14 12:12:51;;;;;;;2.17;1.97;;;38.00;26.80;;;;;;5053440;28;20437;-68
2024/03/14 12:15:17;;;;;;;2.30;1.97;;;38.00;26.80;;;;;;5053089;28;20402;-69
2024/03/14 12:17:44;;;;;;;2.60;2.40;;;38.00;27.00;;;;;;5053341;28;20443;-68
2024/03/14 12:20:11;;;;;;;2.13;1.63;;;38.30;26.60;;;;;;5053530;28;20401;-68
2024/03/14 12:22:43;;;;;;;3.50;2.03;;;38.10;26.30;;;;;;5053390;28;20406;-68
2024/03/14 12:25:20;;;;;;;1.77;1.60;;;38.40;26.80;;;;;;5052220;28;20790;-68
2024/03/14 12:27:50;;;;;;;1.70;1.60;;;38.40;26.20;;;;;;5053078;28;20419;-68
2024/03/14 12:30:17;;;;;;;3.10;1.93;;;39.00;26.30;;;;;;5053111;28;20404;-68
2024/03/14 12:32:54;;;;;;;1.67;1.57;;;38.80;25.70;;;;;;5053072;28;20522;-68
2024/03/14 12:35:20;;;;;;;2.07;1.87;;;37.80;25.50;;;;;;5052807;28;20836;-68
2024/03/14 12:37:48;;;;;;;2.00;1.90;;;37.30;26.10;;;;;;5052923;28;20424;-68
2024/03/14 12:40:17;;;;;;;2.60;2.10;;;38.00;26.80;;;;;;5053424;28;20463;-68
2024/03/14 12:42:47;;;;;;;2.67;2.00;;;38.10;25.80;;;;;;5052788;28;20496;-69
2024/03/14 12:45:16;;;;;;;2.37;1.57;;;38.80;26.20;;;;;;5052618;28;20402;-70
2024/03/14 12:47:43;;;;;;;4.70;1.83;;;39.40;25.90;;;;;;5052639;28;20428;-68
2024/03/14 12:50:24;;;;;;;2.13;1.57;;;39.60;25.40;;;;;;5052714;28;20967;-69
2024/03/14 12:53:05;;;;;;;3.17;1.80;;;39.80;25.40;;;;;;5052608;28;20518;-68